createdAt,value
2023-03-05T00:00:41.780Z,65.10
2023-03-05T00:11:13.542Z,61.50
2023-03-05T00:21:40.952Z,62.10
2023-03-05T00:32:02.409Z,64.70
2023-03-05T00:42:23.663Z,65.60
2023-03-05T00:52:45.367Z,65.80
2023-03-05T01:03:07.050Z,65.20
2023-03-05T01:13:28.634Z,65.10
2023-03-05T01:23:50.072Z,65.60
2023-03-05T01:34:11.532Z,65.50
2023-03-05T01:44:34.396Z,66.80
2023-03-05T01:55:00.032Z,66.30
2023-03-05T02:05:35.106Z,67.00
2023-03-05T02:15:59.798Z,67.60
2023-03-05T02:26:21.412Z,67.80
2023-03-05T02:36:42.882Z,67.60
2023-03-05T02:47:04.355Z,69.10
2023-03-05T02:57:26.874Z,68.80
2023-03-05T03:07:50.233Z,69.20
2023-03-05T03:18:11.780Z,70.00
2023-03-05T03:28:33.079Z,70.70
2023-03-05T03:38:54.034Z,70.40
2023-03-05T03:49:20.062Z,70.90
2023-03-05T03:59:41.446Z,70.70
2023-03-05T04:10:03.689Z,70.50
2023-03-05T04:20:26.204Z,70.80
2023-03-05T04:30:47.995Z,70.60
2023-03-05T04:41:09.273Z,70.90
2023-03-05T04:51:30.594Z,71.00
2023-03-05T05:01:52.165Z,70.20
2023-03-05T05:12:13.418Z,70.10
2023-03-05T05:22:35.368Z,70.00
2023-03-05T05:32:57.200Z,70.60
2023-03-05T05:43:18.618Z,68.90
2023-03-05T05:53:40.338Z,68.50
2023-03-05T06:04:02.495Z,68.90
2023-03-05T06:14:07.560Z,67.30
2023-03-05T06:24:29.227Z,67.60
2023-03-05T06:34:51.469Z,66.30
2023-03-05T06:45:12.820Z,64.70
2023-03-05T06:55:39.764Z,62.60
2023-03-05T07:06:06.454Z,62.40
2023-03-05T07:16:31.674Z,63.40
2023-03-05T07:26:52.878Z,62.90
2023-03-05T07:37:14.462Z,59.60
2023-03-05T07:47:36.803Z,61.10
2023-03-05T07:57:58.341Z,60.60
2023-03-05T08:08:19.440Z,59.40
2023-03-05T08:18:41.841Z,59.30
2023-03-05T08:29:03.394Z,58.30
2023-03-05T08:39:24.542Z,57.50
2023-03-05T08:49:46.404Z,56.20
2023-03-05T09:00:10.218Z,56.60
2023-03-05T09:10:31.537Z,55.60
2023-03-05T09:20:54.199Z,53.80
2023-03-05T09:31:15.903Z,55.00
2023-03-05T09:42:04.814Z,52.10
2023-03-05T09:52:36.832Z,53.30
2023-03-05T10:03:06.528Z,52.80
2023-03-05T10:13:37.335Z,52.50
2023-03-05T10:24:16.812Z,53.50
2023-03-05T10:35:01.974Z,52.00
2023-03-05T10:45:41.931Z,51.60
2023-03-05T10:56:05.839Z,51.90
2023-03-05T11:06:39.459Z,49.60
2023-03-05T11:17:25.658Z,47.00
2023-03-05T11:27:58.014Z,48.70
2023-03-05T11:38:25.164Z,49.50
2023-03-05T11:48:47.011Z,49.60
2023-03-05T11:59:23.798Z,48.00
2023-03-05T12:09:53.368Z,48.90
2023-03-05T12:20:33.887Z,46.30
2023-03-05T12:31:00.075Z,48.00
2023-03-05T12:41:25.433Z,49.00
2023-03-05T12:51:53.538Z,50.50
2023-03-05T13:02:23.909Z,49.70
2023-03-05T13:12:53.168Z,50.70
2023-03-05T13:23:15.267Z,50.70
2023-03-05T13:33:37.369Z,51.40
2023-03-05T13:44:01.719Z,50.70
2023-03-05T13:54:25.235Z,52.20
2023-03-05T14:04:47.626Z,52.60
2023-03-05T14:15:23.005Z,52.20
2023-03-05T14:25:44.482Z,52.20
2023-03-05T14:36:07.297Z,51.90
2023-03-05T14:46:29.704Z,51.80
2023-03-05T14:56:51.778Z,51.30
2023-03-05T15:07:26.462Z,52.50
2023-03-05T15:17:55.071Z,53.40
2023-03-05T15:28:17.210Z,52.70
2023-03-05T15:38:38.964Z,55.00
2023-03-05T15:49:01.162Z,56.10
2023-03-05T15:59:22.784Z,55.50
2023-03-05T16:09:48.270Z,57.60
2023-03-05T16:20:11.899Z,57.60
2023-03-05T16:30:36.151Z,56.90
2023-03-05T16:41:07.812Z,56.60
2023-03-05T16:51:30.936Z,57.70
2023-03-05T17:01:52.426Z,60.70
2023-03-05T17:12:13.823Z,60.20
2023-03-05T17:22:35.637Z,59.60
2023-03-05T17:32:57.430Z,60.00
2023-03-05T17:43:19.020Z,61.60
2023-03-05T17:53:41.266Z,62.20
2023-03-05T18:04:03.263Z,64.10
2023-03-05T18:14:07.097Z,64.60
2023-03-05T18:24:28.583Z,65.50
2023-03-05T18:34:50.691Z,66.70
2023-03-05T18:45:16.589Z,67.80
2023-03-05T18:55:37.998Z,67.90
2023-03-05T19:05:59.393Z,68.90
2023-03-05T19:16:23.620Z,69.10
2023-03-05T19:26:45.171Z,71.00
2023-03-05T19:37:06.977Z,71.50
2023-03-05T19:47:28.307Z,72.20
2023-03-05T19:57:49.849Z,72.60
2023-03-05T20:08:11.331Z,73.00
2023-03-05T20:18:32.793Z,73.80
2023-03-05T20:28:56.339Z,73.70
2023-03-05T20:39:17.917Z,73.80
2023-03-05T20:49:39.366Z,73.20
2023-03-05T21:00:00.750Z,74.50
2023-03-05T21:10:23.661Z,74.60
2023-03-05T21:20:45.217Z,74.40
2023-03-05T21:31:16.514Z,75.00
2023-03-05T21:41:38.074Z,74.90
2023-03-05T21:52:11.665Z,75.10
2023-03-05T22:02:33.007Z,74.20
2023-03-05T22:13:12.253Z,74.70
2023-03-05T22:23:36.721Z,74.90
2023-03-05T22:33:58.358Z,75.20
2023-03-05T22:44:19.914Z,75.50
2023-03-05T22:54:41.231Z,75.40
2023-03-05T23:05:03.505Z,75.40
2023-03-05T23:15:32.484Z,75.50
2023-03-05T23:25:53.813Z,75.90
2023-03-05T23:36:15.484Z,75.90
2023-03-05T23:46:37.034Z,75.80
2023-03-05T23:56:58.473Z,75.60
